createdAt,value
2017-08-01T00:01:22.057Z,6.53
2017-08-01T00:03:53.876Z,6.00
2017-08-01T00:06:25.367Z,6.90
2017-08-01T00:08:56.833Z,6.63
2017-08-01T00:11:28.252Z,5.70
2017-08-01T00:13:59.691Z,6.17
2017-08-01T00:16:31.077Z,6.30
2017-08-01T00:19:02.352Z,5.83
2017-08-01T00:21:34.120Z,6.40
2017-08-01T00:24:05.979Z,6.17
2017-08-01T00:26:37.335Z,6.27
2017-08-01T00:29:08.651Z,6.67
2017-08-01T00:31:40.013Z,5.70
2017-08-01T00:34:11.327Z,5.63
2017-08-01T00:36:42.914Z,7.07
2017-08-01T00:39:14.229Z,6.00
2017-08-01T00:41:45.589Z,6.77
2017-08-01T00:44:16.868Z,6.50
2017-08-01T00:46:48.339Z,6.23
2017-08-01T00:49:19.706Z,6.97
2017-08-01T00:51:51.451Z,6.40
2017-08-01T00:54:23.069Z,6.40
2017-08-01T00:56:54.430Z,6.80
2017-08-01T00:59:25.549Z,6.20
2017-08-01T01:01:56.744Z,6.87
2017-08-01T01:04:27.713Z,8.20
2017-08-01T01:06:59.189Z,7.97
2017-08-01T01:09:30.197Z,7.67
2017-08-01T01:12:02.083Z,8.50
2017-08-01T01:14:33.807Z,7.67
2017-08-01T01:17:05.203Z,8.00
2017-08-01T01:19:36.217Z,7.13
2017-08-01T01:22:07.692Z,7.87
2017-08-01T01:24:38.697Z,6.97
2017-08-01T01:27:09.730Z,5.90
2017-08-01T01:29:40.758Z,5.60
2017-08-01T01:32:11.837Z,3.80
2017-08-01T01:34:42.943Z,3.37
2017-08-01T01:37:14.292Z,3.50
2017-08-01T01:39:45.373Z,3.70
2017-08-01T01:42:16.449Z,3.13
2017-08-01T01:44:47.844Z,2.60
2017-08-01T01:47:18.886Z,2.40
2017-08-01T01:49:49.906Z,2.50
2017-08-01T01:52:21.324Z,2.10
2017-08-01T01:54:52.405Z,1.77
2017-08-01T01:57:23.418Z,2.63
2017-08-01T01:59:54.429Z,1.70
2017-08-01T02:02:25.521Z,1.77
2017-08-01T02:04:56.565Z,1.60
2017-08-01T02:07:27.857Z,1.30
2017-08-01T02:09:58.850Z,1.53
2017-08-01T02:12:29.915Z,3.03
2017-08-01T02:15:01.017Z,2.23
2017-08-01T02:17:32.157Z,1.53
2017-08-01T02:20:03.910Z,1.70
2017-08-01T02:22:35.402Z,1.47
2017-08-01T02:25:06.843Z,1.60
2017-08-01T02:27:37.881Z,1.00
2017-08-01T02:30:08.998Z,1.30
2017-08-01T02:32:40.052Z,1.03
2017-08-01T02:35:11.127Z,0.70
2017-08-01T02:37:42.474Z,1.07
2017-08-01T02:40:13.493Z,0.80
2017-08-01T02:42:44.481Z,0.97
2017-08-01T02:45:15.440Z,0.97
2017-08-01T02:47:46.458Z,0.77
2017-08-01T02:50:17.450Z,1.10
2017-08-01T02:52:48.824Z,1.00
2017-08-01T02:55:19.815Z,0.90
2017-08-01T02:57:50.845Z,1.23
2017-08-01T03:00:21.860Z,1.50
2017-08-01T03:02:52.854Z,1.30
2017-08-01T03:05:23.881Z,1.23
2017-08-01T03:07:55.332Z,1.30
2017-08-01T03:10:26.381Z,1.17
2017-08-01T03:12:57.386Z,1.50
2017-08-01T03:15:28.501Z,1.70
2017-08-01T03:17:59.554Z,1.00
2017-08-01T03:20:30.690Z,1.40
2017-08-01T03:23:02.172Z,1.60
2017-08-01T03:25:33.234Z,1.57
2017-08-01T03:28:04.894Z,1.80
2017-08-01T03:30:36.346Z,1.83
2017-08-01T03:33:07.393Z,1.90
2017-08-01T03:35:38.479Z,2.50
2017-08-01T03:38:09.976Z,2.03
2017-08-01T03:40:40.994Z,1.70
2017-08-01T03:43:12.142Z,2.10
2017-08-01T03:45:43.177Z,2.60
2017-08-01T03:48:14.190Z,1.50
2017-08-01T03:50:45.151Z,2.20
2017-08-01T03:53:16.619Z,1.97
2017-08-01T03:55:48.113Z,1.87
2017-08-01T03:58:19.432Z,1.27
2017-08-01T04:00:50.905Z,1.33
2017-08-01T04:03:21.917Z,1.90
2017-08-01T04:05:52.978Z,1.47
2017-08-01T04:08:24.374Z,2.57
2017-08-01T04:10:55.640Z,1.90
2017-08-01T04:13:26.676Z,1.80
2017-08-01T04:15:57.716Z,1.90
2017-08-01T04:18:28.917Z,1.53
2017-08-01T04:20:59.926Z,2.33
2017-08-01T04:23:31.304Z,2.00
2017-08-01T04:26:02.829Z,1.73
2017-08-01T04:28:33.825Z,1.70
2017-08-01T04:31:04.901Z,2.00
2017-08-01T04:33:35.949Z,2.17
2017-08-01T04:36:07.089Z,2.10
2017-08-01T04:38:38.571Z,1.80
2017-08-01T04:41:09.569Z,2.30
2017-08-01T04:43:40.597Z,2.50
2017-08-01T04:46:11.625Z,2.33
2017-08-01T04:48:42.626Z,2.00
2017-08-01T04:51:13.632Z,2.40
2017-08-01T04:53:45.085Z,2.07
2017-08-01T04:56:16.094Z,3.07
2017-08-01T04:58:45.935Z,2.50
2017-08-01T05:01:16.938Z,4.27
2017-08-01T05:03:48.104Z,3.67
2017-08-01T05:06:19.425Z,3.90
2017-08-01T05:08:50.402Z,4.50
2017-08-01T05:11:21.376Z,5.30
2017-08-01T05:13:52.681Z,5.70
2017-08-01T05:16:23.669Z,4.00
2017-08-01T05:18:54.774Z,3.40
2017-08-01T05:21:25.828Z,3.13
2017-08-01T05:23:57.269Z,2.30
2017-08-01T05:26:28.266Z,2.00
2017-08-01T05:28:59.253Z,1.97
2017-08-01T05:31:30.241Z,1.97
2017-08-01T05:34:01.393Z,1.97
2017-08-01T05:36:32.473Z,2.00
2017-08-01T05:39:04.264Z,2.13
2017-08-01T05:41:35.293Z,2.67
2017-08-01T05:44:06.344Z,1.67
2017-08-01T05:46:37.345Z,2.23
2017-08-01T05:49:08.365Z,2.00
2017-08-01T05:51:39.378Z,2.50
2017-08-01T05:54:13.023Z,2.43
2017-08-01T05:56:44.034Z,2.70
2017-08-01T05:59:15.385Z,2.17
2017-08-01T06:01:46.417Z,2.57
2017-08-01T06:04:17.437Z,2.57
2017-08-01T06:06:48.787Z,3.43
2017-08-01T06:09:19.772Z,3.17
2017-08-01T06:11:50.762Z,2.70
2017-08-01T06:14:22.403Z,3.30
2017-08-01T06:16:53.609Z,3.07
2017-08-01T06:19:26.437Z,3.20
2017-08-01T06:21:57.722Z,3.20
2017-08-01T06:24:29.119Z,4.30
2017-08-01T06:27:00.105Z,2.70
2017-08-01T06:29:31.277Z,2.97
2017-08-01T06:32:07.545Z,3.60
2017-08-01T06:34:57.514Z,3.53
2017-08-01T06:37:30.734Z,3.00
2017-08-01T06:40:21.145Z,3.70
2017-08-01T06:42:55.089Z,3.70
2017-08-01T06:45:28.390Z,3.20
2017-08-01T06:53:37.006Z,3.07
2017-08-01T06:56:09.791Z,3.43
2017-08-01T06:58:42.086Z,4.00
2017-08-01T07:01:13.153Z,3.10
2017-08-01T07:03:44.558Z,4.30
2017-08-01T07:06:17.544Z,3.67
2017-08-01T07:08:48.647Z,4.10
2017-08-01T07:11:20.021Z,3.47
2017-08-01T07:13:51.118Z,4.00
2017-08-01T07:16:23.069Z,3.30
2017-08-01T07:18:54.448Z,3.67
2017-08-01T07:21:25.545Z,3.50
2017-08-01T07:23:56.920Z,3.93
2017-08-01T07:26:27.997Z,3.50
2017-08-01T07:28:59.088Z,3.00
2017-08-01T07:31:31.553Z,2.93
2017-08-01T07:34:07.382Z,2.90
2017-08-01T07:36:39.587Z,2.97
2017-08-01T07:39:11.201Z,3.43
2017-08-01T07:41:42.322Z,3.13
2017-08-01T07:44:18.583Z,3.10
2017-08-01T07:46:49.647Z,3.17
2017-08-01T07:49:21.051Z,3.00
2017-08-01T07:51:52.175Z,3.40
2017-08-01T07:54:24.638Z,3.03
2017-08-01T07:59:34.031Z,3.00
2017-08-01T08:02:08.676Z,3.47
2017-08-01T08:04:39.905Z,2.87
2017-08-01T08:07:11.061Z,3.10
2017-08-01T08:09:42.171Z,2.83
2017-08-01T08:12:15.842Z,2.27
2017-08-01T08:14:47.144Z,2.90
2017-08-01T08:17:18.376Z,2.33
2017-08-01T08:19:50.737Z,3.13
2017-08-01T08:22:21.828Z,2.57
2017-08-01T08:24:52.861Z,3.13
2017-08-01T08:27:23.878Z,3.13
2017-08-01T08:29:54.954Z,3.47
2017-08-01T08:32:25.973Z,3.30
2017-08-01T08:34:57.315Z,3.03
2017-08-01T08:37:28.433Z,3.40
2017-08-01T08:39:59.489Z,2.70
2017-08-01T08:42:30.845Z,2.87
2017-08-01T08:45:03.293Z,2.47
2017-08-01T08:47:45.475Z,3.93
2017-08-01T08:53:12.129Z,3.40
2017-08-01T08:55:43.244Z,3.30
2017-08-01T08:58:16.154Z,3.73
2017-08-01T09:00:47.246Z,2.70
2017-08-01T09:03:18.705Z,2.80
2017-08-01T09:05:49.925Z,2.80
2017-08-01T09:08:21.265Z,2.80
2017-08-01T09:10:53.497Z,2.97
2017-08-01T09:13:24.607Z,3.50
2017-08-01T09:15:55.707Z,3.60
2017-08-01T09:18:27.128Z,2.70
2017-08-01T09:20:58.242Z,4.07
2017-08-01T09:23:29.313Z,3.53
2017-08-01T09:26:00.756Z,3.63
2017-08-01T09:28:32.061Z,3.40
2017-08-01T09:31:03.152Z,3.33
2017-08-01T09:33:34.529Z,3.60
2017-08-01T09:36:06.975Z,3.07
2017-08-01T09:38:38.197Z,4.10
2017-08-01T09:41:09.567Z,4.47
2017-08-01T09:43:40.675Z,4.10
2017-08-01T09:46:11.907Z,3.70
2017-08-01T09:48:43.277Z,4.20
2017-08-01T09:51:14.375Z,3.93
2017-08-01T09:53:45.740Z,3.90
2017-08-01T09:56:18.007Z,3.60
2017-08-01T09:58:49.110Z,3.60
2017-08-01T10:01:20.288Z,3.77
2017-08-01T10:03:51.721Z,2.83
2017-08-01T10:06:22.933Z,3.20
2017-08-01T10:08:54.047Z,3.00
2017-08-01T10:11:25.497Z,3.20
2017-08-01T10:13:56.657Z,3.50
2017-08-01T10:16:27.832Z,4.70
2017-08-01T10:18:59.256Z,2.30
2017-08-01T10:21:30.303Z,3.03
2017-08-01T10:24:03.191Z,3.03
2017-08-01T10:26:34.713Z,2.83
2017-08-01T10:29:05.838Z,2.03
2017-08-01T10:31:36.972Z,2.27
2017-08-01T10:34:08.576Z,4.70
2017-08-01T10:36:39.674Z,3.73
2017-08-01T10:39:10.763Z,3.10
2017-08-01T10:41:42.204Z,2.27
2017-08-01T10:44:13.594Z,1.77
2017-08-01T10:46:44.755Z,2.27
2017-08-01T10:49:15.891Z,2.50
2017-08-01T10:51:47.459Z,2.97
2017-08-01T10:54:19.092Z,2.17
2017-08-01T10:56:50.231Z,3.20
2017-08-01T10:59:23.066Z,3.70
2017-08-01T11:01:54.226Z,2.60
2017-08-01T11:04:25.421Z,3.10
2017-08-01T11:06:56.956Z,3.53
2017-08-01T11:09:28.905Z,2.57
2017-08-01T11:12:00.648Z,3.27
2017-08-01T11:14:31.756Z,2.20
2017-08-01T11:17:04.096Z,2.23
2017-08-01T11:19:35.535Z,2.30
2017-08-01T11:22:08.985Z,2.10
2017-08-01T11:24:40.408Z,2.23
2017-08-01T11:27:11.851Z,2.10
2017-08-01T11:29:43.937Z,2.67
2017-08-01T11:32:18.919Z,1.93
2017-08-01T11:34:50.070Z,2.17
2017-08-01T11:37:21.583Z,2.37
2017-08-01T11:39:52.869Z,2.20
2017-08-01T11:42:24.009Z,2.40
2017-08-01T11:44:55.836Z,2.10
2017-08-01T11:47:26.963Z,1.73
2017-08-01T11:49:58.060Z,16.23
2017-08-01T11:52:30.819Z,2.13
2017-08-01T11:55:05.097Z,3.23
2017-08-01T11:57:38.155Z,2.70
2017-08-01T12:03:04.360Z,2.90
2017-08-01T12:05:35.626Z,2.20
2017-08-01T12:08:08.618Z,2.50
2017-08-01T12:10:39.692Z,2.50
2017-08-01T12:13:11.350Z,2.10
2017-08-01T12:15:42.389Z,2.60
2017-08-01T12:18:13.863Z,1.90
2017-08-01T12:20:45.200Z,2.10
2017-08-01T12:23:16.406Z,2.17
2017-08-01T12:25:47.460Z,2.33
2017-08-01T12:30:45.117Z,2.77
2017-08-01T12:33:16.142Z,3.07
2017-08-01T12:35:47.463Z,3.40
2017-08-01T12:38:18.502Z,3.10
2017-08-01T12:40:50.272Z,3.33
2017-08-01T12:43:21.277Z,3.27
2017-08-01T12:45:52.338Z,3.10
2017-08-01T12:48:23.628Z,2.60
2017-08-01T12:50:54.656Z,2.90
2017-08-01T12:53:25.680Z,2.60
2017-08-01T12:55:57.059Z,3.13
2017-08-01T12:58:28.149Z,2.83
2017-08-01T13:00:59.472Z,3.80
2017-08-01T13:03:30.508Z,2.93
2017-08-01T13:06:02.682Z,3.57
2017-08-01T13:08:33.692Z,3.23
2017-08-01T13:11:04.759Z,4.50
2017-08-01T13:13:35.783Z,3.43
2017-08-01T13:16:06.850Z,3.63
2017-08-01T13:18:38.327Z,2.53
2017-08-01T13:24:09.121Z,3.13
2017-08-01T13:26:40.172Z,3.20
2017-08-01T13:29:11.734Z,2.50
2017-08-01T13:31:42.794Z,2.47
2017-08-01T13:34:13.865Z,2.60
2017-08-01T13:36:45.093Z,2.60
2017-08-01T13:39:16.146Z,2.40
2017-08-01T13:41:47.527Z,2.17
2017-08-01T13:44:18.661Z,2.20
2017-08-01T13:46:49.726Z,2.47
2017-08-01T13:49:21.322Z,2.20
2017-08-01T13:51:55.001Z,2.37
2017-08-01T13:54:33.839Z,2.70
2017-08-01T13:57:06.298Z,2.57
2017-08-01T13:59:39.652Z,2.87
2017-08-01T14:02:12.798Z,2.27
2017-08-01T14:04:44.759Z,2.20
2017-08-01T14:07:15.890Z,2.53
2017-08-01T14:09:47.419Z,2.40
2017-08-01T14:12:18.534Z,2.80
2017-08-01T14:14:49.714Z,2.47
2017-08-01T14:17:21.049Z,2.03
2017-08-01T14:19:52.234Z,3.40
2017-08-01T14:22:23.297Z,2.80
2017-08-01T14:24:54.671Z,2.07
2017-08-01T14:27:25.773Z,2.60
2017-08-01T14:29:57.371Z,2.40
2017-08-01T14:32:28.457Z,2.80
2017-08-01T14:34:59.700Z,3.70
2017-08-01T14:37:31.012Z,4.10
2017-08-01T14:40:04.020Z,2.30
2017-08-01T14:42:35.300Z,2.80
2017-08-01T14:45:06.788Z,3.33
2017-08-01T14:47:37.944Z,2.53
2017-08-01T14:50:09.290Z,2.37
2017-08-01T14:52:40.349Z,2.80
2017-08-01T14:55:11.370Z,1.90
2017-08-01T14:57:45.217Z,2.73
2017-08-01T15:00:16.586Z,2.63
2017-08-01T15:02:47.630Z,2.50
2017-08-01T15:05:18.966Z,3.13
2017-08-01T15:07:50.030Z,3.30
2017-08-01T15:10:21.553Z,8.20
2017-08-01T15:12:52.683Z,9.57
2017-08-01T15:15:23.903Z,7.07
2017-08-01T15:17:56.263Z,5.90
2017-08-01T15:20:27.351Z,6.80
2017-08-01T15:22:58.461Z,5.30
2017-08-01T15:25:29.854Z,4.63
2017-08-01T15:28:00.962Z,5.60
2017-08-01T15:30:32.282Z,4.00
2017-08-01T15:33:03.396Z,5.13
2017-08-01T15:35:34.440Z,3.63
2017-08-01T15:41:00.889Z,4.50
2017-08-01T15:43:32.143Z,7.40
2017-08-01T15:46:07.650Z,4.87
2017-08-01T15:48:38.873Z,5.50
2017-08-01T15:51:09.977Z,4.40
2017-08-01T15:53:41.365Z,8.40
2017-08-01T15:56:12.490Z,6.17
2017-08-01T15:58:43.607Z,4.10
2017-08-01T16:01:15.570Z,3.50
2017-08-01T16:03:46.644Z,5.40
2017-08-01T16:06:17.778Z,4.90
2017-08-01T16:08:49.261Z,5.10
2017-08-01T16:11:20.394Z,6.10
2017-08-01T16:13:51.494Z,8.23
2017-08-01T16:16:22.943Z,5.23
2017-08-01T16:18:54.057Z,4.13
2017-08-01T16:21:25.171Z,4.80
2017-08-01T16:23:56.570Z,7.13
2017-08-01T16:26:27.755Z,8.73
2017-08-01T16:28:59.210Z,4.37
2017-08-01T16:31:30.508Z,4.07
2017-08-01T16:34:03.380Z,3.63
2017-08-01T16:36:34.844Z,3.27
2017-08-01T16:39:07.297Z,2.80
2017-08-01T16:41:38.677Z,3.00
2017-08-01T16:44:10.115Z,3.50
2017-08-01T16:46:44.897Z,4.30
2017-08-01T16:49:16.815Z,3.77
2017-08-01T16:51:48.035Z,3.67
2017-08-01T16:54:19.456Z,3.33
2017-08-01T16:56:50.563Z,5.03
2017-08-01T16:59:21.930Z,4.13
2017-08-01T17:01:52.985Z,4.23
2017-08-01T17:04:24.140Z,5.10
2017-08-01T17:06:56.585Z,5.03
2017-08-01T17:09:36.967Z,4.30
2017-08-01T17:12:10.211Z,4.50
2017-08-01T17:14:41.258Z,4.50
2017-08-01T17:20:11.706Z,3.63
2017-08-01T17:22:43.974Z,3.63
2017-08-01T17:25:15.697Z,3.47
2017-08-01T17:27:46.955Z,3.40
2017-08-01T17:30:18.308Z,3.33
2017-08-01T17:32:49.710Z,3.40
2017-08-01T17:35:20.799Z,3.23
2017-08-01T17:37:51.956Z,3.90
2017-08-01T17:40:24.425Z,3.90
2017-08-01T17:42:55.598Z,3.50
2017-08-01T17:45:27.051Z,3.57
2017-08-01T17:47:58.167Z,3.40
2017-08-01T17:50:29.306Z,3.50
2017-08-01T17:53:01.333Z,3.43
2017-08-01T17:58:28.442Z,4.20
2017-08-01T18:01:03.214Z,3.40
2017-08-01T18:03:48.205Z,3.70
2017-08-01T18:06:25.155Z,4.80
2017-08-01T18:08:58.245Z,4.50
2017-08-01T18:11:30.377Z,4.23
2017-08-01T18:14:05.252Z,4.60
2017-08-01T18:16:37.261Z,4.30
2017-08-01T18:19:08.498Z,4.20
2017-08-01T18:21:40.017Z,6.03
2017-08-01T18:24:13.168Z,5.20
2017-08-01T18:26:44.436Z,5.73
2017-08-01T18:29:16.492Z,6.50
2017-08-01T18:31:47.735Z,6.20
2017-08-01T18:34:20.943Z,5.13
2017-08-01T18:36:53.048Z,5.43
2017-08-01T18:39:25.709Z,5.30
2017-08-01T18:41:57.142Z,5.50
2017-08-01T18:44:28.973Z,5.37
2017-08-01T18:47:02.320Z,5.47
2017-08-01T18:49:34.742Z,5.00
2017-08-01T18:52:13.396Z,4.70
2017-08-01T18:54:46.207Z,7.00
2017-08-01T18:57:20.083Z,6.77
2017-08-01T18:59:53.074Z,6.80
2017-08-01T19:02:26.483Z,7.13
2017-08-01T19:04:59.264Z,4.77
2017-08-01T19:07:32.281Z,3.47
2017-08-01T19:10:20.146Z,3.00
2017-08-01T19:12:53.505Z,3.70
2017-08-01T19:15:27.144Z,3.37
2017-08-01T19:17:59.308Z,2.70
2017-08-01T19:20:32.955Z,2.87
2017-08-01T19:23:08.692Z,3.37
2017-08-01T19:25:41.170Z,2.77
2017-08-01T19:28:14.748Z,5.90
2017-08-01T19:30:48.092Z,5.47
2017-08-01T19:33:21.741Z,5.67
2017-08-01T19:35:55.161Z,4.90
2017-08-01T19:38:29.820Z,4.83
2017-08-01T19:41:05.268Z,5.10
2017-08-01T19:43:40.512Z,5.30
2017-08-01T19:46:14.319Z,6.87
2017-08-01T19:48:47.091Z,5.70
2017-08-01T19:51:18.806Z,5.13
2017-08-01T19:53:50.947Z,6.43
2017-08-01T19:56:25.545Z,4.47
2017-08-01T19:58:58.675Z,4.30
2017-08-01T20:01:33.182Z,4.00
2017-08-01T20:04:07.859Z,3.80
2017-08-01T20:06:39.048Z,4.07
2017-08-01T20:09:13.560Z,2.80
2017-08-01T20:11:47.704Z,3.20
2017-08-01T20:14:23.384Z,3.03
2017-08-01T20:16:56.609Z,3.70
2017-08-01T20:19:31.642Z,4.00
2017-08-01T20:22:10.103Z,2.80
2017-08-01T20:24:42.225Z,2.80
2017-08-01T20:27:14.806Z,3.43
2017-08-01T20:29:49.074Z,3.40
2017-08-01T20:32:21.173Z,3.20
2017-08-01T20:34:54.683Z,3.90
2017-08-01T20:37:26.914Z,3.10
2017-08-01T20:40:00.057Z,3.97
2017-08-01T20:42:31.986Z,5.17
2017-08-01T20:45:07.417Z,3.97
2017-08-01T20:47:41.046Z,6.13
2017-08-01T20:50:13.748Z,6.13
2017-08-01T20:52:48.109Z,5.67
2017-08-01T20:58:14.606Z,4.60
2017-08-01T21:00:45.752Z,4.77
2017-08-01T21:03:18.498Z,4.63
2017-08-01T21:05:53.816Z,4.23
2017-08-01T21:08:28.086Z,4.83
2017-08-01T21:11:02.194Z,5.50
2017-08-01T21:13:41.784Z,5.60
2017-08-01T21:16:22.646Z,5.73
2017-08-01T21:18:59.054Z,5.70
2017-08-01T21:21:33.789Z,7.20
2017-08-01T21:26:45.162Z,8.30
2017-08-01T21:29:18.871Z,7.57
2017-08-01T21:34:47.761Z,7.27
2017-08-01T21:37:20.406Z,8.27
2017-08-01T21:39:53.402Z,8.17
2017-08-01T21:42:24.536Z,8.83
2017-08-01T21:44:56.358Z,8.30
2017-08-01T21:47:28.104Z,8.70
2017-08-01T21:49:59.834Z,8.63
2017-08-01T21:52:32.414Z,8.07
2017-08-01T21:55:03.880Z,8.87
2017-08-01T21:57:35.372Z,7.57
2017-08-01T22:00:06.535Z,8.40
2017-08-01T22:02:37.787Z,7.57
2017-08-01T22:05:09.200Z,8.43
2017-08-01T22:07:40.338Z,9.20
2017-08-01T22:10:11.410Z,7.90
2017-08-01T22:12:42.783Z,9.20
2017-08-01T22:15:13.863Z,9.07
2017-08-01T22:17:44.929Z,8.70
2017-08-01T22:20:20.287Z,9.50
2017-08-01T22:25:36.093Z,8.37
2017-08-01T22:28:13.256Z,7.57
2017-08-01T22:30:45.547Z,8.53
2017-08-01T22:33:16.933Z,8.90
2017-08-01T22:35:50.852Z,8.60
2017-08-01T22:38:22.700Z,8.77
2017-08-01T22:40:56.549Z,8.83
2017-08-01T22:43:30.516Z,8.83
2017-08-01T22:46:03.838Z,8.50
2017-08-01T22:48:36.559Z,7.73
2017-08-01T22:51:07.779Z,7.60
2017-08-01T22:53:41.359Z,7.60
2017-08-01T22:56:14.695Z,9.30
2017-08-01T22:58:48.812Z,8.30
2017-08-01T23:01:20.053Z,10.23
2017-08-01T23:03:51.401Z,9.67
2017-08-01T23:06:25.843Z,9.97
2017-08-01T23:08:58.908Z,9.03
2017-08-01T23:11:30.517Z,9.47
2017-08-01T23:14:08.630Z,9.13
2017-08-01T23:16:41.572Z,9.67
2017-08-01T23:19:16.882Z,9.07
2017-08-01T23:21:50.644Z,9.30
2017-08-01T23:24:22.897Z,8.87
2017-08-01T23:26:58.751Z,9.63
2017-08-01T23:29:47.918Z,7.87
2017-08-01T23:32:20.939Z,8.67
2017-08-01T23:34:52.032Z,7.53
2017-08-01T23:37:23.603Z,8.03
2017-08-01T23:39:59.016Z,7.83
2017-08-01T23:42:39.748Z,9.60
2017-08-01T23:45:19.559Z,8.50
2017-08-01T23:47:55.324Z,8.40
2017-08-01T23:50:31.453Z,9.30
2017-08-01T23:55:39.842Z,9.60
2017-08-01T23:58:11.415Z,10.43
